Time;durP1;ratioP1;P1;durP2;ratioP2;P2;SDS_P1;SDS_P2;PMS_P1;PMS_P2;Temp;Humidity;BMP_temperature;BMP_pressure;BME280_temperature;BME280_humidity;BME280_pressure;Samples;Min_cycle;Max_cycle;Signal;HPM_P1;HPM_P2
2022/05/31 01:08:47;;;;;;;5.10;1.97;;;;;;;;;;7385137;19;20657;-77
2022/05/31 01:11:14;;;;;;;3.17;2.07;;;;;;;;;;7380150;19;20125;-77
2022/05/31 01:13:42;;;;;;;2.80;2.17;;;;;;;;;;7387426;19;20148;-76
2022/05/31 01:16:09;;;;;;;3.70;2.33;;;;;;;;;;7388432;19;20177;-79
2022/05/31 01:18:35;;;;;;;2.67;2.00;;;;;;;;;;7391204;19;20207;-76
2022/05/31 01:21:01;;;;;;;2.93;2.20;;;;;;;;;;7388726;19;20138;-79
2022/05/31 01:23:30;;;;;;;7.20;2.37;;;;;;;;;;7387043;19;20153;-77
2022/05/31 01:26:04;;;;;;;2.50;2.13;;;;;;;;;;7386844;19;20172;-77
2022/05/31 01:28:50;;;;;;;4.30;2.17;;;;;;;;;;7388572;19;20573;-77
2022/05/31 01:31:17;;;;;;;6.20;2.50;;;;;;;;;;7385686;19;20654;-77
2022/05/31 01:33:58;;;;;;;2.93;2.00;;;;;;;;;;7387222;19;20186;-77
2022/05/31 01:36:28;;;;;;;5.33;2.23;;;;;;;;;;7384262;19;20618;-77
2022/05/31 01:39:00;;;;;;;2.20;2.00;;;;;;;;;;7388699;19;20137;-78
2022/05/31 01:41:26;;;;;;;3.13;1.83;;;;;;;;;;7387442;19;20160;-77
2022/05/31 01:43:54;;;;;;;2.53;2.10;;;;;;;;;;7388809;19;20540;-80
2022/05/31 01:46:25;;;;;;;3.53;2.43;;;;;;;;;;7390694;19;20167;-77
2022/05/31 01:48:51;;;;;;;2.70;2.23;;;;;;;;;;7386902;19;20144;-78
2022/05/31 01:51:17;;;;;;;4.80;2.23;;;;;;;;;;7385459;19;20603;-82
2022/05/31 01:53:43;;;;;;;3.50;2.23;;;;;;;;;;7390191;19;20160;-80
2022/05/31 01:56:11;;;;;;;3.23;2.00;;;;;;;;;;7386556;19;20557;-80
2022/05/31 01:58:38;;;;;;;5.53;2.33;;;;;;;;;;7389419;19;20153;-79
2022/05/31 02:01:04;;;;;;;3.60;1.93;;;;;;;;;;7388676;19;20152;-80
2022/05/31 02:03:32;;;;;;;4.10;2.60;;;;;;;;;;7388100;19;20612;-79
2022/05/31 02:05:59;;;;;;;3.63;2.40;;;;;;;;;;7389253;19;20157;-81
2022/05/31 02:08:29;;;;;;;2.47;2.10;;;;;;;;;;7383916;19;20182;-80
2022/05/31 02:10:56;;;;;;;2.97;2.00;;;;;;;;;;7383116;19;21152;-77
2022/05/31 02:13:22;;;;;;;3.50;2.20;;;;;;;;;;7384236;19;20136;-77
2022/05/31 02:15:51;;;;;;;3.47;2.17;;;;;;;;;;7380413;19;20185;-77
2022/05/31 02:18:17;;;;;;;4.50;2.80;;;;;;;;;;7385165;19;20164;-77
2022/05/31 02:20:43;;;;;;;5.13;2.53;;;;;;;;;;7383262;19;20164;-78
2022/05/31 02:23:09;;;;;;;3.17;2.20;;;;;;;;;;7383801;19;20159;-78
2022/05/31 02:25:36;;;;;;;4.03;2.27;;;;;;;;;;7382047;19;20526;-78
2022/05/31 02:28:02;;;;;;;3.67;2.50;;;;;;;;;;7381164;19;20152;-78
2022/05/31 02:30:28;;;;;;;3.87;2.57;;;;;;;;;;7383351;19;20141;-79
2022/05/31 02:32:54;;;;;;;3.10;2.33;;;;;;;;;;7384086;19;20144;-79
2022/05/31 02:35:20;;;;;;;4.13;2.50;;;;;;;;;;7382188;19;20173;-77
2022/05/31 02:37:46;;;;;;;3.27;2.70;;;;;;;;;;7383796;19;20133;-78
2022/05/31 02:40:12;;;;;;;3.27;2.50;;;;;;;;;;7380235;19;20188;-78
2022/05/31 02:42:39;;;;;;;2.87;2.27;;;;;;;;;;7371620;19;20132;-78
2022/05/31 02:45:06;;;;;;;3.90;2.30;;;;;;;;;;7370907;19;20187;-78
2022/05/31 02:47:32;;;;;;;4.47;2.00;;;;;;;;;;7381998;19;20141;-78
2022/05/31 02:49:58;;;;;;;5.53;2.17;;;;;;;;;;7382707;19;20149;-77
2022/05/31 02:52:24;;;;;;;3.20;2.50;;;;;;;;;;7375264;19;20204;-78
2022/05/31 02:54:50;;;;;;;6.57;2.73;;;;;;;;;;7381777;19;20160;-78
2022/05/31 02:57:16;;;;;;;2.10;1.90;;;;;;;;;;7381114;19;20170;-79
2022/05/31 02:59:42;;;;;;;4.43;2.70;;;;;;;;;;7381093;19;20158;-77
2022/05/31 03:02:10;;;;;;;4.00;2.27;;;;;;;;;;7379440;19;20133;-78
2022/05/31 03:04:36;;;;;;;5.43;2.30;;;;;;;;;;7380795;19;20157;-78
2022/05/31 13:06:14;;;;;;;;;;;;;;;;;;5396358;19;1630248071;31
2022/05/31 13:08:55;;;;;;;3.33;1.88;;;;;;;;;;7405570;19;20170;-86
2022/05/31 13:20:04;;;;;;;4.60;1.90;;;;;;;;;;7399620;19;20465;-83
2022/05/31 13:22:37;;;;;;;2.40;1.52;;;;;;;;;;7397871;19;20152;-83
2022/05/31 13:25:04;;;;;;;2.25;1.77;;;;;;;;;;7398322;19;20146;-83
2022/05/31 13:27:35;;;;;;;3.78;2.00;;;;;;;;;;7392974;19;20168;-83
2022/05/31 13:30:02;;;;;;;3.67;1.80;;;;;;;;;;7398619;19;20156;-85
2022/05/31 13:32:34;;;;;;;2.40;1.83;;;;;;;;;;7395161;19;20183;-84
2022/05/31 13:35:24;;;;;;;2.40;1.85;;;;;;;;;;7401606;19;20165;-84
2022/05/31 13:37:56;;;;;;;5.00;2.20;;;;;;;;;;7396051;19;20172;-84
2022/05/31 13:40:25;;;;;;;2.55;1.60;;;;;;;;;;7397557;19;20650;-83
2022/05/31 13:42:53;;;;;;;2.38;1.80;;;;;;;;;;7399017;19;20208;-84
2022/05/31 13:45:21;;;;;;;3.03;1.80;;;;;;;;;;7401440;19;20153;-84
2022/05/31 13:47:53;;;;;;;1.85;1.73;;;;;;;;;;7397694;19;20168;-84
2022/05/31 13:50:21;;;;;;;4.10;1.73;;;;;;;;;;7402834;19;20151;-84
2022/05/31 13:52:51;;;;;;;5.55;1.70;;;;;;;;;;7404608;19;20155;-84
2022/05/31 13:55:24;;;;;;;3.85;1.70;;;;;;;;;;7403676;19;20165;-84
2022/05/31 13:57:52;;;;;;;6.45;1.77;;;;;;;;;;7395732;19;20177;-84
2022/05/31 14:00:31;;;;;;;2.63;1.65;;;;;;;;;;7397129;19;20184;-83
2022/05/31 14:03:05;;;;;;;4.28;1.88;;;;;;;;;;7402220;19;20223;-85
2022/05/31 14:05:34;;;;;;;3.28;1.83;;;;;;;;;;7402703;19;20152;-85
2022/05/31 14:08:00;;;;;;;3.15;1.80;;;;;;;;;;7396738;19;20529;-85
2022/05/31 14:10:27;;;;;;;4.63;1.80;;;;;;;;;;7400654;19;20156;-84
2022/05/31 14:12:58;;;;;;;2.67;1.60;;;;;;;;;;7408500;19;20125;-86
2022/05/31 14:15:27;;;;;;;2.95;1.55;;;;;;;;;;7425128;19;20141;-88
2022/05/31 14:18:04;;;;;;;4.47;1.63;;;;;;;;;;7417144;19;20172;-89
2022/05/31 14:20:33;;;;;;;3.78;1.58;;;;;;;;;;7424365;19;20243;-89
2022/05/31 14:23:10;;;;;;;4.53;1.90;;;;;;;;;;7417439;19;20165;-91
2022/05/31 14:25:36;;;;;;;2.78;1.80;;;;;;;;;;7418473;19;20168;-89
2022/05/31 14:28:02;;;;;;;2.72;1.48;;;;;;;;;;7407685;19;20152;-93
2022/05/31 14:30:34;;;;;;;3.65;1.50;;;;;;;;;;7396365;19;20168;-90
2022/05/31 14:33:02;;;;;;;2.03;1.30;;;;;;;;;;7396802;19;20161;-88
2022/05/31 14:35:35;;;;;;;3.95;1.40;;;;;;;;;;7398514;19;20133;-89
2022/05/31 14:38:04;;;;;;;3.35;1.40;;;;;;;;;;7406300;19;20148;-91
2022/05/31 14:40:32;;;;;;;1.50;1.38;;;;;;;;;;7425800;19;20177;-88
2022/05/31 14:43:27;;;;;;;2.22;1.55;;;;;;;;;;7425422;19;20121;-90
2022/05/31 14:45:53;;;;;;;3.75;1.48;;;;;;;;;;7424232;19;20136;-89
2022/05/31 14:48:45;;;;;;;1.75;1.45;;;;;;;;;;7420114;19;20954;-89
2022/05/31 14:51:17;;;;;;;1.95;1.75;;;;;;;;;;7409249;19;20140;-89
2022/05/31 14:53:44;;;;;;;1.98;1.65;;;;;;;;;;7399366;19;20145;-89
2022/05/31 14:56:25;;;;;;;2.20;1.90;;;;;;;;;;7399070;19;20160;-89
2022/05/31 14:58:54;;;;;;;2.85;1.30;;;;;;;;;;7403817;19;20455;-91
2022/05/31 15:01:20;;;;;;;4.07;1.60;;;;;;;;;;7417179;19;20160;-89
2022/05/31 15:03:57;;;;;;;2.80;1.50;;;;;;;;;;7431267;19;20143;-89
2022/05/31 15:06:25;;;;;;;3.47;1.40;;;;;;;;;;7426036;19;20120;-89
2022/05/31 15:09:05;;;;;;;1.88;1.50;;;;;;;;;;7425209;19;20165;-89
2022/05/31 15:19:47;;;;;;;1.33;1.23;;;;;;;;;;7418283;19;20132;-91
2022/05/31 15:22:14;;;;;;;3.03;1.40;;;;;;;;;;7411531;19;20640;-89
2022/05/31 15:24:42;;;;;;;1.75;1.38;;;;;;;;;;7397400;19;20257;-89
2022/05/31 15:27:25;;;;;;;1.60;1.50;;;;;;;;;;7396601;19;20177;-89
2022/05/31 15:29:54;;;;;;;1.83;1.60;;;;;;;;;;7410214;19;20137;-90
2022/05/31 15:32:21;;;;;;;2.20;1.50;;;;;;;;;;7404826;19;20778;-88
2022/05/31 15:34:47;;;;;;;2.75;1.65;;;;;;;;;;7400381;19;20145;-88
2022/05/31 15:37:16;;;;;;;2.80;1.40;;;;;;;;;;7399428;19;20236;-87
2022/05/31 15:39:42;;;;;;;1.90;1.80;;;;;;;;;;7397258;19;20153;-88
2022/05/31 15:42:10;;;;;;;12.20;8.90;;;;;;;;;;7400535;19;20170;-89
2022/05/31 15:44:36;;;;;;;5.78;4.15;;;;;;;;;;7398997;19;20125;-91
2022/05/31 15:47:03;;;;;;;1.48;1.35;;;;;;;;;;7393467;19;20673;-88
2022/05/31 15:49:31;;;;;;;2.22;1.73;;;;;;;;;;7397316;19;20144;-90
2022/05/31 15:51:58;;;;;;;3.00;1.63;;;;;;;;;;7400163;19;20210;-89
2022/05/31 15:54:25;;;;;;;2.15;1.80;;;;;;;;;;7401325;19;20125;-88
2022/05/31 15:56:52;;;;;;;1.75;1.63;;;;;;;;;;7399898;19;20153;-88
2022/05/31 15:59:23;;;;;;;1.93;1.50;;;;;;;;;;7395046;19;20137;-90
2022/05/31 16:01:50;;;;;;;1.98;1.65;;;;;;;;;;7398769;19;20539;-90
2022/05/31 16:04:17;;;;;;;1.90;1.70;;;;;;;;;;7396685;19;20156;-90
2022/05/31 16:06:43;;;;;;;4.67;1.83;;;;;;;;;;7392847;19;20176;-89
2022/05/31 16:09:11;;;;;;;6.30;1.60;;;;;;;;;;7397463;19;20121;-89
2022/05/31 16:11:38;;;;;;;3.90;1.60;;;;;;;;;;7400118;19;20160;-91
2022/05/31 16:14:04;;;;;;;1.93;1.50;;;;;;;;;;7401688;19;20322;-90
2022/05/31 16:16:30;;;;;;;1.57;1.47;;;;;;;;;;7403788;19;20544;-90
2022/05/31 16:18:56;;;;;;;1.90;1.63;;;;;;;;;;7404675;19;20152;-92
2022/05/31 16:21:22;;;;;;;4.27;1.63;;;;;;;;;;7401387;19;20184;-90
2022/05/31 16:23:48;;;;;;;2.63;1.53;;;;;;;;;;7402421;19;20148;-91
2022/05/31 16:26:15;;;;;;;1.80;1.63;;;;;;;;;;7401558;19;20577;-92
2022/05/31 16:28:44;;;;;;;1.90;1.57;;;;;;;;;;7403070;19;20181;-91
2022/05/31 16:31:10;;;;;;;3.37;1.77;;;;;;;;;;7404310;19;21319;-91
2022/05/31 16:33:36;;;;;;;2.07;1.67;;;;;;;;;;7394382;19;20156;-91
2022/05/31 16:36:05;;;;;;;4.70;2.63;;;;;;;;;;7405721;19;20567;-92
2022/05/31 16:41:35;;;;;;;5.27;1.80;;;;;;;;;;7420765;19;20132;-95
2022/05/31 16:44:02;;;;;;;5.40;1.70;;;;;;;;;;7417602;19;20148;-93
2022/05/31 16:46:29;;;;;;;2.53;1.77;;;;;;;;;;7425488;19;20185;-92
2022/05/31 16:48:55;;;;;;;2.33;1.50;;;;;;;;;;7403348;19;20147;-93
2022/05/31 16:51:21;;;;;;;2.50;1.77;;;;;;;;;;7403648;19;20143;-90
2022/05/31 16:53:47;;;;;;;2.57;1.83;;;;;;;;;;7396744;19;20157;-91
2022/05/31 16:56:13;;;;;;;2.13;1.93;;;;;;;;;;7407597;19;20133;-92
2022/05/31 16:58:40;;;;;;;2.27;1.70;;;;;;;;;;7424771;19;20158;-93
2022/05/31 17:01:07;;;;;;;2.10;1.60;;;;;;;;;;7427422;19;20152;-92
2022/05/31 17:03:42;;;;;;;3.30;1.87;;;;;;;;;;7431945;19;20141;-93
2022/05/31 17:06:10;;;;;;;2.07;1.87;;;;;;;;;;7428029;19;20135;-93
2022/05/31 17:14:24;;;;;;;3.20;1.60;;;;;;;;;;7430753;19;20136;-93
2022/05/31 17:16:50;;;;;;;4.33;1.90;;;;;;;;;;7428119;19;20176;-94
2022/05/31 17:19:16;;;;;;;3.07;1.53;;;;;;;;;;7430078;19;20156;-94
2022/05/31 17:21:57;;;;;;;1.93;1.77;;;;;;;;;;7430237;19;20138;-94
2022/05/31 17:24:27;;;;;;;2.20;1.43;;;;;;;;;;7428955;19;20133;-91
2022/05/31 17:26:59;;;;;;;2.63;2.07;;;;;;;;;;7420314;19;20180;-91
2022/05/31 17:29:27;;;;;;;2.63;1.80;;;;;;;;;;7415482;19;20156;-91
2022/05/31 17:31:53;;;;;;;2.28;1.70;;;;;;;;;;7417719;19;20164;-90
2022/05/31 17:34:19;;;;;;;1.85;1.65;;;;;;;;;;7407133;19;20157;-89
2022/05/31 17:36:45;;;;;;;2.00;1.60;;;;;;;;;;7400195;19;20176;-88
2022/05/31 17:39:12;;;;;;;2.10;1.60;;;;;;;;;;7397419;19;20183;-90
2022/05/31 17:41:53;;;;;;;2.97;1.77;;;;;;;;;;7396693;19;20152;-91
2022/05/31 17:44:51;;;;;;;1.77;1.27;;;;;;;;;;7396451;19;20224;-92
2022/05/31 17:47:20;;;;;;;1.38;1.27;;;;;;;;;;7393498;19;20176;-90
2022/05/31 17:49:46;;;;;;;1.70;1.60;;;;;;;;;;7398611;19;20141;-90
2022/05/31 17:52:12;;;;;;;3.03;1.70;;;;;;;;;;7398924;19;20161;-89
2022/05/31 17:54:39;;;;;;;1.92;1.50;;;;;;;;;;7400447;19;20197;-90
2022/05/31 17:57:05;;;;;;;1.73;1.50;;;;;;;;;;7397872;19;20169;-91
2022/05/31 17:59:33;;;;;;;2.13;1.40;;;;;;;;;;7397728;19;20571;-92
2022/05/31 18:02:06;;;;;;;1.30;1.20;;;;;;;;;;7399771;19;20152;-90
2022/05/31 18:04:32;;;;;;;1.77;1.55;;;;;;;;;;7396409;19;20144;-91
2022/05/31 18:06:58;;;;;;;1.92;1.60;;;;;;;;;;7388264;19;20192;-91
2022/05/31 18:09:35;;;;;;;3.53;1.50;;;;;;;;;;7397874;19;20148;-92
2022/05/31 18:12:07;;;;;;;2.10;1.60;;;;;;;;;;7401733;19;20208;-94
2022/05/31 18:14:34;;;;;;;1.83;1.60;;;;;;;;;;7402496;19;20265;-96
2022/05/31 18:17:00;;;;;;;1.60;1.50;;;;;;;;;;7413813;19;20173;-93
2022/05/31 18:19:26;;;;;;;2.75;1.63;;;;;;;;;;7399099;19;20152;-94
2022/05/31 18:21:53;;;;;;;3.63;1.80;;;;;;;;;;7390727;19;20132;-94
2022/05/31 18:24:22;;;;;;;2.20;1.53;;;;;;;;;;7394039;19;20160;-93
2022/05/31 18:26:49;;;;;;;6.67;4.50;;;;;;;;;;7394450;19;21306;-93
2022/05/31 18:32:01;;;;;;;6.70;5.20;;;;;;;;;;7404857;19;20128;-94
2022/05/31 18:34:28;;;;;;;6.00;3.87;;;;;;;;;;7401167;19;20149;-93
2022/05/31 18:41:58;;;;;;;3.03;1.70;;;;;;;;;;7393766;19;20132;-93
2022/05/31 18:44:24;;;;;;;10.90;7.60;;;;;;;;;;7390259;19;20160;-94
2022/05/31 18:46:50;;;;;;;2.00;1.60;;;;;;;;;;7397667;19;20171;-93
2022/05/31 18:49:16;;;;;;;5.20;4.17;;;;;;;;;;7399701;19;20144;-95
2022/05/31 18:51:42;;;;;;;2.63;1.60;;;;;;;;;;7394573;19;20144;-95
2022/05/31 18:54:10;;;;;;;3.70;2.00;;;;;;;;;;7398798;19;20160;-95
2022/05/31 18:56:38;;;;;;;2.13;1.90;;;;;;;;;;7399413;19;20173;-95
2022/05/31 18:59:05;;;;;;;2.97;1.87;;;;;;;;;;7397382;19;20164;-94
2022/05/31 19:01:32;;;;;;;2.23;1.87;;;;;;;;;;7381015;19;20199;-79
2022/05/31 19:03:59;;;;;;;3.50;2.10;;;;;;;;;;7356604;19;20140;-79
2022/05/31 19:06:25;;;;;;;5.67;2.00;;;;;;;;;;7377968;19;20141;-82
2022/05/31 19:08:51;;;;;;;4.60;1.97;;;;;;;;;;7387851;19;20212;-79
2022/05/31 19:11:19;;;;;;;2.40;2.17;;;;;;;;;;7367779;19;20157;-78
2022/05/31 19:13:45;;;;;;;2.47;1.90;;;;;;;;;;7363331;19;20181;-79
2022/05/31 19:16:11;;;;;;;3.57;1.97;;;;;;;;;;7378232;19;20187;-79
2022/05/31 19:18:38;;;;;;;2.27;2.00;;;;;;;;;;7378879;19;20148;-79
2022/05/31 19:21:05;;;;;;;2.10;1.87;;;;;;;;;;7382832;19;20216;-78
2022/05/31 19:23:31;;;;;;;2.40;2.10;;;;;;;;;;7387362;19;20146;-81
2022/05/31 19:25:57;;;;;;;1.90;1.80;;;;;;;;;;7394554;19;20244;-83
2022/05/31 19:28:23;;;;;;;3.80;1.97;;;;;;;;;;7385054;19;20528;-83
2022/05/31 19:30:50;;;;;;;2.07;1.77;;;;;;;;;;7383982;19;20158;-78
2022/05/31 19:33:21;;;;;;;1.97;1.50;;;;;;;;;;7385824;19;20121;-79
2022/05/31 19:35:53;;;;;;;2.33;1.90;;;;;;;;;;7380537;19;20216;-79
2022/05/31 19:38:22;;;;;;;2.90;2.20;;;;;;;;;;7375079;19;20136;-77
2022/05/31 19:40:48;;;;;;;3.17;2.20;;;;;;;;;;7379579;19;20129;-78
2022/05/31 19:43:14;;;;;;;2.90;2.07;;;;;;;;;;7377664;19;20889;-78
2022/05/31 19:45:40;;;;;;;2.90;1.80;;;;;;;;;;7378201;19;20153;-79
2022/05/31 19:48:07;;;;;;;3.03;1.90;;;;;;;;;;7378177;19;20152;-78
2022/05/31 19:50:34;;;;;;;3.23;1.93;;;;;;;;;;7377626;19;20140;-78
2022/05/31 19:53:00;;;;;;;3.13;1.90;;;;;;;;;;7379449;19;20141;-82
2022/05/31 19:55:28;;;;;;;2.00;1.90;;;;;;;;;;7377548;19;20145;-78
2022/05/31 19:57:54;;;;;;;2.60;1.70;;;;;;;;;;7380668;19;20591;-78
2022/05/31 20:00:21;;;;;;;2.63;1.93;;;;;;;;;;7379831;19;20130;-79
2022/05/31 20:02:47;;;;;;;2.20;2.00;;;;;;;;;;7377853;19;20125;-78
2022/05/31 20:05:13;;;;;;;3.70;2.10;;;;;;;;;;7381706;19;20685;-78
2022/05/31 20:07:39;;;;;;;3.30;2.00;;;;;;;;;;7383432;19;20137;-77
2022/05/31 20:10:08;;;;;;;3.03;1.87;;;;;;;;;;7378027;19;20135;-78
2022/05/31 20:12:36;;;;;;;1.83;1.73;;;;;;;;;;7385835;19;20465;-78
2022/05/31 20:15:03;;;;;;;3.20;1.97;;;;;;;;;;7389236;19;20139;-78
2022/05/31 20:17:29;;;;;;;4.23;2.10;;;;;;;;;;7376775;19;20658;-78
2022/05/31 20:20:04;;;;;;;2.60;2.40;;;;;;;;;;7381969;19;20595;-78
2022/05/31 20:22:35;;;;;;;2.77;2.30;;;;;;;;;;7384328;19;20211;-78
2022/05/31 20:25:01;;;;;;;3.20;3.00;;;;;;;;;;7389026;19;20147;-78
2022/05/31 20:27:27;;;;;;;6.23;3.30;;;;;;;;;;7387559;19;20216;-77
2022/05/31 20:29:53;;;;;;;11.00;7.47;;;;;;;;;;7383439;19;20165;-77
2022/05/31 20:32:19;;;;;;;4.77;4.10;;;;;;;;;;7395548;19;20137;-79
2022/05/31 20:34:45;;;;;;;3.83;2.80;;;;;;;;;;7394287;19;20586;-79
2022/05/31 20:37:14;;;;;;;3.27;2.90;;;;;;;;;;7386204;19;20153;-78
2022/05/31 20:39:42;;;;;;;4.60;4.20;;;;;;;;;;7386550;19;20168;-79
2022/05/31 20:42:09;;;;;;;6.47;4.00;;;;;;;;;;7385191;19;20219;-78
2022/05/31 20:44:35;;;;;;;4.47;4.07;;;;;;;;;;7389914;19;20133;-77
2022/05/31 20:47:01;;;;;;;4.40;2.63;;;;;;;;;;7385273;19;20748;-78
2022/05/31 20:49:28;;;;;;;2.87;2.67;;;;;;;;;;7389751;19;20140;-78
2022/05/31 20:51:56;;;;;;;2.83;2.53;;;;;;;;;;7382898;19;20159;-80
2022/05/31 20:54:23;;;;;;;2.50;2.30;;;;;;;;;;7383831;19;20128;-78
2022/05/31 20:56:49;;;;;;;2.17;2.03;;;;;;;;;;7380088;19;20176;-79
2022/05/31 20:59:15;;;;;;;2.17;1.83;;;;;;;;;;7373726;19;20141;-78
2022/05/31 21:01:41;;;;;;;3.73;2.00;;;;;;;;;;7380422;19;20149;-79
2022/05/31 21:04:07;;;;;;;5.23;2.10;;;;;;;;;;7372608;19;20149;-78
2022/05/31 21:06:35;;;;;;;2.23;2.03;;;;;;;;;;7382307;19;20164;-78
2022/05/31 21:09:03;;;;;;;2.87;1.93;;;;;;;;;;7370262;19;20164;-81
2022/05/31 21:11:29;;;;;;;2.43;2.00;;;;;;;;;;7377965;19;20160;-79
2022/05/31 21:13:55;;;;;;;2.07;1.87;;;;;;;;;;7372402;19;20125;-79
2022/05/31 21:16:21;;;;;;;2.90;2.20;;;;;;;;;;7375514;19;20236;-81
2022/05/31 21:18:47;;;;;;;3.37;2.20;;;;;;;;;;7374915;19;20151;-83
2022/05/31 21:21:15;;;;;;;2.40;2.20;;;;;;;;;;7381233;19;20153;-79
2022/05/31 21:23:41;;;;;;;4.07;2.10;;;;;;;;;;7379228;19;21707;-81
2022/05/31 21:26:09;;;;;;;1.83;1.73;;;;;;;;;;7370534;19;20176;-78
2022/05/31 21:28:39;;;;;;;2.17;1.93;;;;;;;;;;7374048;19;20152;-79
2022/05/31 21:31:05;;;;;;;2.10;1.90;;;;;;;;;;7370852;19;20133;-78
2022/05/31 21:33:31;;;;;;;2.30;2.10;;;;;;;;;;7376871;19;20515;-80
2022/05/31 21:35:57;;;;;;;1.90;1.50;;;;;;;;;;7378431;19;20491;-80
2022/05/31 21:38:23;;;;;;;1.73;1.63;;;;;;;;;;7370006;19;20181;-81
2022/05/31 21:41:08;;;;;;;3.00;1.93;;;;;;;;;;7375194;19;20178;-80
2022/05/31 21:43:38;;;;;;;2.43;2.20;;;;;;;;;;7373918;19;20148;-79
2022/05/31 21:46:04;;;;;;;3.10;1.80;;;;;;;;;;7370892;19;20535;-80
2022/05/31 21:48:30;;;;;;;2.20;2.00;;;;;;;;;;7371230;19;20491;-79
2022/05/31 21:50:59;;;;;;;4.20;1.80;;;;;;;;;;7371103;19;20141;-80
2022/05/31 21:53:30;;;;;;;3.27;1.87;;;;;;;;;;7384820;19;20178;-79
2022/05/31 21:55:56;;;;;;;4.63;2.20;;;;;;;;;;7383479;19;20155;-80
2022/05/31 21:58:23;;;;;;;2.70;1.90;;;;;;;;;;7377518;19;20158;-82
2022/05/31 22:00:49;;;;;;;6.57;2.43;;;;;;;;;;7377477;19;20149;-79
2022/05/31 22:03:16;;;;;;;2.10;1.90;;;;;;;;;;7375788;19;20236;-79
2022/05/31 22:05:42;;;;;;;2.03;1.83;;;;;;;;;;7374769;19;20209;-80
2022/05/31 22:08:09;;;;;;;2.33;1.77;;;;;;;;;;7378892;19;20125;-80
2022/05/31 22:10:36;;;;;;;3.43;1.97;;;;;;;;;;7377160;19;20196;-81
2022/05/31 22:13:03;;;;;;;3.23;1.93;;;;;;;;;;7365856;19;20640;-80
2022/05/31 22:15:28;;;;;;;2.03;1.83;;;;;;;;;;7367202;19;20184;-78
2022/05/31 22:17:54;;;;;;;2.53;1.90;;;;;;;;;;7378651;19;20136;-80
2022/05/31 22:20:21;;;;;;;2.37;2.10;;;;;;;;;;7380975;19;20615;-79
2022/05/31 22:22:48;;;;;;;2.63;1.90;;;;;;;;;;7377837;19;20173;-79
2022/05/31 22:25:15;;;;;;;3.63;2.20;;;;;;;;;;7363511;19;20145;-79
2022/05/31 22:27:43;;;;;;;3.70;2.10;;;;;;;;;;7358814;19;21273;-79
2022/05/31 22:30:11;;;;;;;3.40;2.03;;;;;;;;;;7370434;19;20148;-80
2022/05/31 22:32:38;;;;;;;3.30;1.80;;;;;;;;;;7364671;19;20175;-80
2022/05/31 22:35:04;;;;;;;2.20;1.80;;;;;;;;;;7379840;19;20125;-80
2022/05/31 22:37:30;;;;;;;2.30;2.10;;;;;;;;;;7385198;19;20125;-79
2022/05/31 22:40:01;;;;;;;2.00;1.80;;;;;;;;;;7372754;19;20208;-81
2022/05/31 22:42:27;;;;;;;2.37;1.90;;;;;;;;;;7377637;19;20129;-80
2022/05/31 22:44:54;;;;;;;2.90;2.10;;;;;;;;;;7376996;19;20152;-79
2022/05/31 22:47:20;;;;;;;2.23;2.03;;;;;;;;;;7373298;19;20121;-80
2022/05/31 22:49:46;;;;;;;1.80;1.70;;;;;;;;;;7374234;19;20146;-80
2022/05/31 22:52:12;;;;;;;3.37;2.00;;;;;;;;;;7375538;19;20630;-81
2022/05/31 22:54:38;;;;;;;2.53;2.10;;;;;;;;;;7377686;19;20133;-78
2022/05/31 22:57:04;;;;;;;2.30;1.83;;;;;;;;;;7376377;19;20148;-80
2022/05/31 22:59:30;;;;;;;2.87;1.80;;;;;;;;;;7377850;19;20129;-80
2022/05/31 23:01:56;;;;;;;2.63;1.97;;;;;;;;;;7377336;19;20144;-78
2022/05/31 23:04:25;;;;;;;2.67;2.07;;;;;;;;;;7378039;19;20611;-80
2022/05/31 23:06:51;;;;;;;1.90;1.73;;;;;;;;;;7374328;19;20256;-79
2022/05/31 23:09:16;;;;;;;2.30;2.10;;;;;;;;;;7383529;19;20149;-79
2022/05/31 23:11:42;;;;;;;5.30;2.80;;;;;;;;;;7383429;19;20160;-80
2022/05/31 23:14:08;;;;;;;1.80;1.70;;;;;;;;;;7385318;19;20146;-78
2022/05/31 23:16:36;;;;;;;2.33;2.13;;;;;;;;;;7384223;19;20148;-80
2022/05/31 23:19:04;;;;;;;2.90;2.00;;;;;;;;;;7385313;19;20164;-79
2022/05/31 23:21:33;;;;;;;3.17;1.80;;;;;;;;;;7382325;19;20161;-80
2022/05/31 23:24:01;;;;;;;1.77;1.47;;;;;;;;;;7378420;19;20524;-79
2022/05/31 23:26:30;;;;;;;3.53;2.00;;;;;;;;;;7387224;19;20145;-80
2022/05/31 23:28:57;;;;;;;4.67;2.10;;;;;;;;;;7376886;19;20176;-80
2022/05/31 23:31:25;;;;;;;2.33;1.60;;;;;;;;;;7382006;19;22329;-80
2022/05/31 23:34:11;;;;;;;2.37;1.80;;;;;;;;;;7375058;19;20449;-80
2022/05/31 23:36:37;;;;;;;2.17;2.07;;;;;;;;;;7371975;19;20179;-80
2022/05/31 23:39:03;;;;;;;2.73;2.00;;;;;;;;;;7376846;19;20145;-79
2022/05/31 23:41:29;;;;;;;1.97;1.80;;;;;;;;;;7386930;19;20129;-80
2022/05/31 23:43:55;;;;;;;2.00;1.80;;;;;;;;;;7389889;19;20156;-79
2022/05/31 23:46:22;;;;;;;3.50;2.40;;;;;;;;;;7399766;19;20180;-80
2022/05/31 23:48:48;;;;;;;3.37;1.90;;;;;;;;;;7404429;19;20140;-82
2022/05/31 23:51:14;;;;;;;2.57;1.90;;;;;;;;;;7379668;19;20155;-81
2022/05/31 23:53:42;;;;;;;2.27;2.03;;;;;;;;;;7387807;19;20117;-81
2022/05/31 23:56:08;;;;;;;2.67;2.00;;;;;;;;;;7386051;19;20240;-80
2022/05/31 23:58:34;;;;;;;2.17;1.83;;;;;;;;;;7389905;19;20554;-80
